Farris, Minnesota
Current Conditions -  °F | °C
As of 3:55 PM on Saturday 25 Oct 2014 (Local Time) from KY49 Reporting Station
Clear Clear  
Wind Chill: 56°   Ceiling: Unl
Heat Index: 56°   Visibility: 10mi
Dew Point: 24°   Wind: 15mph
Humidity: 29%   Direction: 300°WNW
Pressure: 30.02"   Gusts: 23mph
Location:  47.3012°N, 94.5426°W
Report Text: KY49 252055Z AUTO 30013G20KT 10SM CLR 14/M04 A3002 RMK AO2 T01361043
Loading
Personal Weather Stations






























Interactive Weather Map
Tropical Storm Tracking
New forecast layout! Learn more

10-Day Weather Forecast

Advertisements
Track Severe Weather on mobile